sensor_id;sensor_type;location;lat;lon;timestamp;temperature;humidity
2995;DHT22;35277;49.890;8.222;2022-10-16T00:01:29;22.80;79.50
2995;DHT22;35277;49.890;8.222;2022-10-16T00:03:59;22.70;79.40
2995;DHT22;35277;49.890;8.222;2022-10-16T00:06:29;22.70;79.40
2995;DHT22;35277;49.890;8.222;2022-10-16T00:08:57;22.70;79.40
2995;DHT22;35277;49.890;8.222;2022-10-16T00:11:27;22.70;79.30
2995;DHT22;35277;49.890;8.222;2022-10-16T00:13:57;22.80;79.40
2995;DHT22;35277;49.890;8.222;2022-10-16T00:16:26;22.70;79.30
2995;DHT22;35277;49.890;8.222;2022-10-16T00:18:54;22.70;79.30
2995;DHT22;35277;49.890;8.222;2022-10-16T00:21:25;22.80;79.40
2995;DHT22;35277;49.890;8.222;2022-10-16T00:23:55;22.70;79.30
2995;DHT22;35277;49.890;8.222;2022-10-16T00:26:23;22.70;79.30
2995;DHT22;35277;49.890;8.222;2022-10-16T00:28:51;22.70;79.30
2995;DHT22;35277;49.890;8.222;2022-10-16T00:31:22;22.70;79.30
2995;DHT22;35277;49.890;8.222;2022-10-16T00:33:50;22.70;79.30
2995;DHT22;35277;49.890;8.222;2022-10-16T00:36:20;22.70;79.30
2995;DHT22;35277;49.890;8.222;2022-10-16T00:38:51;22.70;79.30
2995;DHT22;35277;49.890;8.222;2022-10-16T00:41:22;22.70;79.30
2995;DHT22;35277;49.890;8.222;2022-10-16T00:43:52;22.70;79.30
2995;DHT22;35277;49.890;8.222;2022-10-16T00:46:22;22.70;79.20
2995;DHT22;35277;49.890;8.222;2022-10-16T00:48:54;22.80;79.40
2995;DHT22;35277;49.890;8.222;2022-10-16T00:51:26;22.80;79.40
2995;DHT22;35277;49.890;8.222;2022-10-16T00:53:56;22.70;79.20
2995;DHT22;35277;49.890;8.222;2022-10-16T00:56:24;22.70;80.00
2995;DHT22;35277;49.890;8.222;2022-10-16T00:58:52;22.70;79.20
2995;DHT22;35277;49.890;8.222;2022-10-16T01:01:20;22.70;79.20
2995;DHT22;35277;49.890;8.222;2022-10-16T01:03:48;22.70;79.20
2995;DHT22;35277;49.890;8.222;2022-10-16T01:06:24;22.70;79.20
2995;DHT22;35277;49.890;8.222;2022-10-16T01:09:02;22.70;79.10
2995;DHT22;35277;49.890;8.222;2022-10-16T01:11:38;22.70;79.20
2995;DHT22;35277;49.890;8.222;2022-10-16T01:14:13;22.70;79.10
2995;DHT22;35277;49.890;8.222;2022-10-16T01:16:46;22.70;79.10
2995;DHT22;35277;49.890;8.222;2022-10-16T01:19:20;22.70;79.10
2995;DHT22;35277;49.890;8.222;2022-10-16T01:21:53;22.70;79.10
2995;DHT22;35277;49.890;8.222;2022-10-16T01:24:31;22.70;79.10
2995;DHT22;35277;49.890;8.222;2022-10-16T01:27:12;22.70;79.10
2995;DHT22;35277;49.890;8.222;2022-10-16T01:29:49;22.80;79.20
2995;DHT22;35277;49.890;8.222;2022-10-16T01:32:24;22.70;79.10
2995;DHT22;35277;49.890;8.222;2022-10-16T01:34:58;22.70;79.10
2995;DHT22;35277;49.890;8.222;2022-10-16T01:37:33;22.70;79.20
2995;DHT22;35277;49.890;8.222;2022-10-16T01:40:06;22.70;79.20
2995;DHT22;35277;49.890;8.222;2022-10-16T01:42:39;22.70;79.20
2995;DHT22;35277;49.890;8.222;2022-10-16T01:45:10;22.70;79.20
2995;DHT22;35277;49.890;8.222;2022-10-16T01:47:40;22.70;79.20
2995;DHT22;35277;49.890;8.222;2022-10-16T01:50:11;22.70;79.20
2995;DHT22;35277;49.890;8.222;2022-10-16T01:52:43;22.70;79.20
2995;DHT22;35277;49.890;8.222;2022-10-16T01:55:16;22.70;79.20
2995;DHT22;35277;49.890;8.222;2022-10-16T01:57:48;22.70;79.20
2995;DHT22;35277;49.890;8.222;2022-10-16T02:00:19;22.70;79.20
2995;DHT22;35277;49.890;8.222;2022-10-16T02:02:49;22.70;79.20
2995;DHT22;35277;49.890;8.222;2022-10-16T02:05:23;22.70;79.20
2995;DHT22;35277;49.890;8.222;2022-10-16T02:07:53;22.70;79.20
2995;DHT22;35277;49.890;8.222;2022-10-16T02:10:22;22.70;79.10
2995;DHT22;35277;49.890;8.222;2022-10-16T02:12:56;22.70;79.10
2995;DHT22;35277;49.890;8.222;2022-10-16T02:15:25;22.70;79.10
2995;DHT22;35277;49.890;8.222;2022-10-16T02:17:52;22.70;79.10
2995;DHT22;35277;49.890;8.222;2022-10-16T02:20:25;22.70;79.10
2995;DHT22;35277;49.890;8.222;2022-10-16T02:22:56;22.70;79.10
2995;DHT22;35277;49.890;8.222;2022-10-16T02:25:27;22.70;79.10
2995;DHT22;35277;49.890;8.222;2022-10-16T02:28:03;22.70;79.10
2995;DHT22;35277;49.890;8.222;2022-10-16T02:30:34;22.70;79.00
2995;DHT22;35277;49.890;8.222;2022-10-16T02:33:06;22.70;79.00
2995;DHT22;35277;49.890;8.222;2022-10-16T02:35:35;22.70;79.00
2995;DHT22;35277;49.890;8.222;2022-10-16T02:38:04;22.70;79.00
2995;DHT22;35277;49.890;8.222;2022-10-16T02:40:33;22.70;79.00
2995;DHT22;35277;49.890;8.222;2022-10-16T02:43:04;22.70;79.00
2995;DHT22;35277;49.890;8.222;2022-10-16T02:45:32;22.70;79.00
2995;DHT22;35277;49.890;8.222;2022-10-16T02:47:59;22.70;79.10
2995;DHT22;35277;49.890;8.222;2022-10-16T02:50:27;22.70;79.00
2995;DHT22;35277;49.890;8.222;2022-10-16T02:52:55;22.70;79.00
2995;DHT22;35277;49.890;8.222;2022-10-16T02:55:23;22.70;79.00
2995;DHT22;35277;49.890;8.222;2022-10-16T02:57:50;22.70;79.00
2995;DHT22;35277;49.890;8.222;2022-10-16T03:00:20;22.70;79.00
2995;DHT22;35277;49.890;8.222;2022-10-16T03:02:48;22.70;79.00
2995;DHT22;35277;49.890;8.222;2022-10-16T03:05:16;22.70;78.90
2995;DHT22;35277;49.890;8.222;2022-10-16T03:07:45;22.70;78.90
2995;DHT22;35277;49.890;8.222;2022-10-16T03:10:12;22.70;78.90
2995;DHT22;35277;49.890;8.222;2022-10-16T03:12:40;22.70;78.90
2995;DHT22;35277;49.890;8.222;2022-10-16T03:15:08;22.70;78.90
2995;DHT22;35277;49.890;8.222;2022-10-16T03:17:38;22.70;78.90
2995;DHT22;35277;49.890;8.222;2022-10-16T03:20:06;22.70;78.90
2995;DHT22;35277;49.890;8.222;2022-10-16T03:22:34;22.70;78.90
2995;DHT22;35277;49.890;8.222;2022-10-16T03:25:02;22.70;78.90
2995;DHT22;35277;49.890;8.222;2022-10-16T03:27:30;22.70;78.90
2995;DHT22;35277;49.890;8.222;2022-10-16T03:29:58;22.70;78.90
2995;DHT22;35277;49.890;8.222;2022-10-16T03:32:26;22.70;78.90
2995;DHT22;35277;49.890;8.222;2022-10-16T03:34:56;22.70;78.90
2995;DHT22;35277;49.890;8.222;2022-10-16T03:37:24;22.70;78.90
2995;DHT22;35277;49.890;8.222;2022-10-16T03:39:52;22.70;78.90
2995;DHT22;35277;49.890;8.222;2022-10-16T03:42:20;22.70;78.80
2995;DHT22;35277;49.890;8.222;2022-10-16T03:44:48;22.70;78.90
2995;DHT22;35277;49.890;8.222;2022-10-16T03:47:15;22.70;78.90
2995;DHT22;35277;49.890;8.222;2022-10-16T03:49:47;22.70;78.90
2995;DHT22;35277;49.890;8.222;2022-10-16T03:52:16;22.70;78.80
2995;DHT22;35277;49.890;8.222;2022-10-16T03:54:49;22.70;78.90
2995;DHT22;35277;49.890;8.222;2022-10-16T03:57:17;22.70;78.80
2995;DHT22;35277;49.890;8.222;2022-10-16T03:59:45;22.70;78.90
2995;DHT22;35277;49.890;8.222;2022-10-16T04:02:12;22.70;78.80
2995;DHT22;35277;49.890;8.222;2022-10-16T04:04:40;22.70;78.80
2995;DHT22;35277;49.890;8.222;2022-10-16T04:07:08;22.70;79.60
2995;DHT22;35277;49.890;8.222;2022-10-16T04:09:37;22.70;78.80
2995;DHT22;35277;49.890;8.222;2022-10-16T04:12:05;22.70;78.80
2995;DHT22;35277;49.890;8.222;2022-10-16T04:14:33;22.70;78.80
2995;DHT22;35277;49.890;8.222;2022-10-16T04:17:01;22.70;78.80
2995;DHT22;35277;49.890;8.222;2022-10-16T04:19:28;22.70;78.80
2995;DHT22;35277;49.890;8.222;2022-10-16T04:21:56;22.70;78.80
2995;DHT22;35277;49.890;8.222;2022-10-16T04:24:24;22.70;78.80
2995;DHT22;35277;49.890;8.222;2022-10-16T04:26:53;22.70;78.80
2995;DHT22;35277;49.890;8.222;2022-10-16T04:29:21;22.70;78.70
2995;DHT22;35277;49.890;8.222;2022-10-16T04:31:48;22.70;78.70
2995;DHT22;35277;49.890;8.222;2022-10-16T04:34:16;22.70;78.70
2995;DHT22;35277;49.890;8.222;2022-10-16T04:36:46;22.70;78.70
2995;DHT22;35277;49.890;8.222;2022-10-16T04:39:14;22.70;78.70
2995;DHT22;35277;49.890;8.222;2022-10-16T04:41:42;22.70;78.60
2995;DHT22;35277;49.890;8.222;2022-10-16T04:44:11;22.70;78.60
2995;DHT22;35277;49.890;8.222;2022-10-16T04:46:38;22.70;78.70
2995;DHT22;35277;49.890;8.222;2022-10-16T04:49:06;22.60;78.50
2995;DHT22;35277;49.890;8.222;2022-10-16T04:51:34;22.60;78.50
2995;DHT22;35277;49.890;8.222;2022-10-16T04:54:02;22.60;78.50
2995;DHT22;35277;49.890;8.222;2022-10-16T04:56:30;22.70;78.50
2995;DHT22;35277;49.890;8.222;2022-10-16T04:58:58;22.60;78.40
2995;DHT22;35277;49.890;8.222;2022-10-16T05:01:27;22.60;78.50
2995;DHT22;35277;49.890;8.222;2022-10-16T05:03:55;22.70;78.60
2995;DHT22;35277;49.890;8.222;2022-10-16T05:06:22;22.60;78.40
2995;DHT22;35277;49.890;8.222;2022-10-16T05:08:50;22.60;78.40
2995;DHT22;35277;49.890;8.222;2022-10-16T05:11:18;22.60;78.40
2995;DHT22;35277;49.890;8.222;2022-10-16T05:13:46;22.70;78.50
2995;DHT22;35277;49.890;8.222;2022-10-16T05:16:17;22.60;78.40
2995;DHT22;35277;49.890;8.222;2022-10-16T05:18:46;22.60;78.40
2995;DHT22;35277;49.890;8.222;2022-10-16T05:21:18;22.70;78.40
2995;DHT22;35277;49.890;8.222;2022-10-16T05:23:46;22.60;78.40
2995;DHT22;35277;49.890;8.222;2022-10-16T05:26:14;22.60;78.30
2995;DHT22;35277;49.890;8.222;2022-10-16T05:28:42;22.60;78.30
2995;DHT22;35277;49.890;8.222;2022-10-16T05:31:10;22.60;78.30
2995;DHT22;35277;49.890;8.222;2022-10-16T05:33:38;22.60;78.40
2995;DHT22;35277;49.890;8.222;2022-10-16T05:36:08;22.60;78.30
2995;DHT22;35277;49.890;8.222;2022-10-16T05:38:37;22.60;78.40
2995;DHT22;35277;49.890;8.222;2022-10-16T05:41:05;22.60;78.30
2995;DHT22;35277;49.890;8.222;2022-10-16T05:43:33;22.70;78.40
2995;DHT22;35277;49.890;8.222;2022-10-16T05:46:03;22.60;78.30
2995;DHT22;35277;49.890;8.222;2022-10-16T05:48:32;22.60;78.30
2995;DHT22;35277;49.890;8.222;2022-10-16T05:51:02;22.60;78.30
2995;DHT22;35277;49.890;8.222;2022-10-16T05:53:34;22.60;78.20
2995;DHT22;35277;49.890;8.222;2022-10-16T05:56:03;22.60;78.30
2995;DHT22;35277;49.890;8.222;2022-10-16T05:58:32;22.60;78.20
2995;DHT22;35277;49.890;8.222;2022-10-16T06:01:02;22.60;78.30
2995;DHT22;35277;49.890;8.222;2022-10-16T06:03:30;22.60;78.30
2995;DHT22;35277;49.890;8.222;2022-10-16T06:05:58;22.60;78.30
2995;DHT22;35277;49.890;8.222;2022-10-16T06:08:26;22.70;78.40
2995;DHT22;35277;49.890;8.222;2022-10-16T06:11:02;22.60;78.40
2995;DHT22;35277;49.890;8.222;2022-10-16T06:13:30;22.70;78.40
2995;DHT22;35277;49.890;8.222;2022-10-16T06:15:59;22.60;78.30
2995;DHT22;35277;49.890;8.222;2022-10-16T06:18:28;22.70;78.40
2995;DHT22;35277;49.890;8.222;2022-10-16T06:20:57;22.60;78.40
2995;DHT22;35277;49.890;8.222;2022-10-16T06:23:28;22.60;78.40
2995;DHT22;35277;49.890;8.222;2022-10-16T06:26:05;22.70;78.50
2995;DHT22;35277;49.890;8.222;2022-10-16T06:28:33;22.60;78.50
2995;DHT22;35277;49.890;8.222;2022-10-16T06:31:02;22.60;78.60
2995;DHT22;35277;49.890;8.222;2022-10-16T06:33:34;22.70;78.90
2995;DHT22;35277;49.890;8.222;2022-10-16T06:36:03;22.70;79.10
2995;DHT22;35277;49.890;8.222;2022-10-16T06:38:31;22.70;79.30
2995;DHT22;35277;49.890;8.222;2022-10-16T06:40:59;22.70;79.40
2995;DHT22;35277;49.890;8.222;2022-10-16T06:43:30;22.70;79.60
2995;DHT22;35277;49.890;8.222;2022-10-16T06:45:59;22.80;79.90
2995;DHT22;35277;49.890;8.222;2022-10-16T06:48:28;22.80;80.00
2995;DHT22;35277;49.890;8.222;2022-10-16T06:50:57;22.80;80.10
2995;DHT22;35277;49.890;8.222;2022-10-16T06:53:27;22.80;80.20
2995;DHT22;35277;49.890;8.222;2022-10-16T06:55:55;22.80;80.20
2995;DHT22;35277;49.890;8.222;2022-10-16T06:58:23;22.80;80.20
2995;DHT22;35277;49.890;8.222;2022-10-16T07:00:56;22.80;80.30
2995;DHT22;35277;49.890;8.222;2022-10-16T07:03:24;22.80;80.40
2995;DHT22;35277;49.890;8.222;2022-10-16T07:05:52;22.90;80.50
2995;DHT22;35277;49.890;8.222;2022-10-16T07:08:19;22.90;80.50
2995;DHT22;35277;49.890;8.222;2022-10-16T07:10:47;22.90;80.60
2995;DHT22;35277;49.890;8.222;2022-10-16T07:13:15;22.90;80.70
2995;DHT22;35277;49.890;8.222;2022-10-16T07:15:43;22.90;80.80
2995;DHT22;35277;49.890;8.222;2022-10-16T07:18:12;22.90;80.70
2995;DHT22;35277;49.890;8.222;2022-10-16T07:20:40;22.90;80.70
2995;DHT22;35277;49.890;8.222;2022-10-16T07:23:07;22.90;80.80
2995;DHT22;35277;49.890;8.222;2022-10-16T07:25:35;22.90;80.70
2995;DHT22;35277;49.890;8.222;2022-10-16T07:28:04;22.90;80.70
2995;DHT22;35277;49.890;8.222;2022-10-16T07:30:35;22.90;80.60
2995;DHT22;35277;49.890;8.222;2022-10-16T07:33:04;22.90;80.60
2995;DHT22;35277;49.890;8.222;2022-10-16T07:35:33;22.90;80.60
2995;DHT22;35277;49.890;8.222;2022-10-16T07:38:00;22.80;80.50
2995;DHT22;35277;49.890;8.222;2022-10-16T07:40:28;22.80;80.50
2995;DHT22;35277;49.890;8.222;2022-10-16T07:42:56;22.80;80.50
2995;DHT22;35277;49.890;8.222;2022-10-16T07:45:24;22.80;80.40
2995;DHT22;35277;49.890;8.222;2022-10-16T07:47:51;22.80;80.40
2995;DHT22;35277;49.890;8.222;2022-10-16T07:50:19;22.80;80.40
2995;DHT22;35277;49.890;8.222;2022-10-16T07:52:48;22.80;80.40
2995;DHT22;35277;49.890;8.222;2022-10-16T07:55:16;22.80;80.30
2995;DHT22;35277;49.890;8.222;2022-10-16T07:57:44;22.80;80.30
2995;DHT22;35277;49.890;8.222;2022-10-16T08:00:12;22.80;80.30
2995;DHT22;35277;49.890;8.222;2022-10-16T08:02:40;22.80;80.30
2995;DHT22;35277;49.890;8.222;2022-10-16T08:05:08;22.80;80.30
2995;DHT22;35277;49.890;8.222;2022-10-16T08:07:36;22.80;80.30
2995;DHT22;35277;49.890;8.222;2022-10-16T08:10:06;22.80;80.30
2995;DHT22;35277;49.890;8.222;2022-10-16T08:12:34;22.80;80.30
2995;DHT22;35277;49.890;8.222;2022-10-16T08:15:02;22.80;80.30
2995;DHT22;35277;49.890;8.222;2022-10-16T08:17:30;22.80;80.30
2995;DHT22;35277;49.890;8.222;2022-10-16T08:19:58;22.90;80.40
2995;DHT22;35277;49.890;8.222;2022-10-16T08:22:26;22.90;80.40
2995;DHT22;35277;49.890;8.222;2022-10-16T08:24:53;22.90;80.40
2995;DHT22;35277;49.890;8.222;2022-10-16T08:27:22;22.90;80.40
2995;DHT22;35277;49.890;8.222;2022-10-16T08:29:51;22.90;80.50
2995;DHT22;35277;49.890;8.222;2022-10-16T08:32:18;22.90;80.40
2995;DHT22;35277;49.890;8.222;2022-10-16T08:34:52;22.90;80.40
2995;DHT22;35277;49.890;8.222;2022-10-16T08:37:20;22.90;80.40
2995;DHT22;35277;49.890;8.222;2022-10-16T08:39:47;22.90;80.50
2995;DHT22;35277;49.890;8.222;2022-10-16T08:42:28;22.90;80.40
2995;DHT22;35277;49.890;8.222;2022-10-16T08:45:07;22.90;80.40
2995;DHT22;35277;49.890;8.222;2022-10-16T08:47:45;22.90;80.40
2995;DHT22;35277;49.890;8.222;2022-10-16T08:50:22;22.90;80.40
2995;DHT22;35277;49.890;8.222;2022-10-16T08:52:51;23.00;80.50
2995;DHT22;35277;49.890;8.222;2022-10-16T08:55:31;23.10;80.40
2995;DHT22;35277;49.890;8.222;2022-10-16T08:58:10;23.20;80.30
2995;DHT22;35277;49.890;8.222;2022-10-16T09:00:39;23.20;80.10
2995;DHT22;35277;49.890;8.222;2022-10-16T09:03:16;23.20;80.00
2995;DHT22;35277;49.890;8.222;2022-10-16T09:05:54;23.20;80.10
2995;DHT22;35277;49.890;8.222;2022-10-16T09:08:30;23.20;80.00
2995;DHT22;35277;49.890;8.222;2022-10-16T09:11:07;23.30;80.00
2995;DHT22;35277;49.890;8.222;2022-10-16T09:13:47;23.40;79.90
2995;DHT22;35277;49.890;8.222;2022-10-16T09:16:19;23.50;79.80
2995;DHT22;35277;49.890;8.222;2022-10-16T09:18:54;23.50;79.70
2995;DHT22;35277;49.890;8.222;2022-10-16T09:21:27;23.50;79.80
2995;DHT22;35277;49.890;8.222;2022-10-16T09:23:58;23.50;80.00
2995;DHT22;35277;49.890;8.222;2022-10-16T09:26:27;23.50;80.30
2995;DHT22;35277;49.890;8.222;2022-10-16T09:28:56;23.40;80.40
2995;DHT22;35277;49.890;8.222;2022-10-16T09:31:24;23.40;80.70
2995;DHT22;35277;49.890;8.222;2022-10-16T09:33:55;23.40;81.00
2995;DHT22;35277;49.890;8.222;2022-10-16T09:36:27;23.40;81.30
2995;DHT22;35277;49.890;8.222;2022-10-16T09:39:03;23.40;81.50
2995;DHT22;35277;49.890;8.222;2022-10-16T09:41:34;23.30;81.70
2995;DHT22;35277;49.890;8.222;2022-10-16T09:44:15;23.30;81.90
2995;DHT22;35277;49.890;8.222;2022-10-16T09:46:45;23.30;82.10
2995;DHT22;35277;49.890;8.222;2022-10-16T09:49:22;23.30;82.40
2995;DHT22;35277;49.890;8.222;2022-10-16T09:52:02;23.20;82.50
2995;DHT22;35277;49.890;8.222;2022-10-16T09:54:29;23.20;82.60
2995;DHT22;35277;49.890;8.222;2022-10-16T09:57:04;23.20;82.60
2995;DHT22;35277;49.890;8.222;2022-10-16T09:59:34;23.20;82.70
2995;DHT22;35277;49.890;8.222;2022-10-16T10:02:04;23.20;82.60
2995;DHT22;35277;49.890;8.222;2022-10-16T10:04:41;23.20;82.70
2995;DHT22;35277;49.890;8.222;2022-10-16T10:07:18;23.20;82.60
2995;DHT22;35277;49.890;8.222;2022-10-16T10:09:46;23.10;82.60
2995;DHT22;35277;49.890;8.222;2022-10-16T10:12:19;23.10;82.50
2995;DHT22;35277;49.890;8.222;2022-10-16T10:14:55;23.10;82.60
2995;DHT22;35277;49.890;8.222;2022-10-16T10:17:25;23.20;82.80
2995;DHT22;35277;49.890;8.222;2022-10-16T10:19:55;23.10;82.70
2995;DHT22;35277;49.890;8.222;2022-10-16T10:22:26;23.10;82.70
2995;DHT22;35277;49.890;8.222;2022-10-16T10:24:57;23.10;82.70
2995;DHT22;35277;49.890;8.222;2022-10-16T10:27:34;23.10;82.90
2995;DHT22;35277;49.890;8.222;2022-10-16T10:30:08;23.10;82.90
2995;DHT22;35277;49.890;8.222;2022-10-16T10:32:43;23.10;82.90
2995;DHT22;35277;49.890;8.222;2022-10-16T10:35:19;23.10;82.90
2995;DHT22;35277;49.890;8.222;2022-10-16T10:38:06;23.20;83.10
2995;DHT22;35277;49.890;8.222;2022-10-16T10:40:47;23.20;83.20
2995;DHT22;35277;49.890;8.222;2022-10-16T10:43:38;23.10;83.20
2995;DHT22;35277;49.890;8.222;2022-10-16T10:46:16;23.10;83.40
2995;DHT22;35277;49.890;8.222;2022-10-16T10:48:59;23.20;83.50
2995;DHT22;35277;49.890;8.222;2022-10-16T10:51:38;23.20;83.60
2995;DHT22;35277;49.890;8.222;2022-10-16T10:54:16;23.10;83.50
2995;DHT22;35277;49.890;8.222;2022-10-16T10:56:51;23.20;83.70
2995;DHT22;35277;49.890;8.222;2022-10-16T10:59:42;23.10;84.00
2995;DHT22;35277;49.890;8.222;2022-10-16T11:02:24;23.20;84.60
2995;DHT22;35277;49.890;8.222;2022-10-16T11:05:31;23.20;85.20
2995;DHT22;35277;49.890;8.222;2022-10-16T11:08:03;23.20;85.60
2995;DHT22;35277;49.890;8.222;2022-10-16T11:10:42;23.20;85.60
2995;DHT22;35277;49.890;8.222;2022-10-16T11:13:20;23.20;85.90
2995;DHT22;35277;49.890;8.222;2022-10-16T11:15:55;23.20;86.20
2995;DHT22;35277;49.890;8.222;2022-10-16T11:18:30;23.20;86.30
2995;DHT22;35277;49.890;8.222;2022-10-16T11:21:04;23.20;86.40
2995;DHT22;35277;49.890;8.222;2022-10-16T11:23:37;23.30;86.50
2995;DHT22;35277;49.890;8.222;2022-10-16T11:26:12;23.30;86.50
2995;DHT22;35277;49.890;8.222;2022-10-16T11:28:45;23.30;86.50
2995;DHT22;35277;49.890;8.222;2022-10-16T11:31:17;23.30;86.50
2995;DHT22;35277;49.890;8.222;2022-10-16T11:33:51;23.30;86.50
2995;DHT22;35277;49.890;8.222;2022-10-16T11:36:23;23.30;86.50
2995;DHT22;35277;49.890;8.222;2022-10-16T11:39:00;23.30;86.40
2995;DHT22;35277;49.890;8.222;2022-10-16T11:41:34;23.30;86.40
2995;DHT22;35277;49.890;8.222;2022-10-16T11:44:14;23.30;86.40
2995;DHT22;35277;49.890;8.222;2022-10-16T11:46:50;23.20;86.30
2995;DHT22;35277;49.890;8.222;2022-10-16T11:49:36;23.20;86.20
2995;DHT22;35277;49.890;8.222;2022-10-16T11:52:11;23.20;86.30
2995;DHT22;35277;49.890;8.222;2022-10-16T11:54:47;23.20;86.40
2995;DHT22;35277;49.890;8.222;2022-10-16T11:57:19;23.20;86.40
2995;DHT22;35277;49.890;8.222;2022-10-16T11:59:52;23.20;86.40
2995;DHT22;35277;49.890;8.222;2022-10-16T12:02:40;23.10;86.30
2995;DHT22;35277;49.890;8.222;2022-10-16T12:05:22;23.10;86.30
2995;DHT22;35277;49.890;8.222;2022-10-16T12:07:59;23.10;86.40
2995;DHT22;35277;49.890;8.222;2022-10-16T12:10:30;23.10;86.30
2995;DHT22;35277;49.890;8.222;2022-10-16T12:16:22;23.10;86.30
2995;DHT22;35277;49.890;8.222;2022-10-16T12:19:07;23.10;86.30
2995;DHT22;35277;49.890;8.222;2022-10-16T12:21:38;23.10;86.20
2995;DHT22;35277;49.890;8.222;2022-10-16T12:24:06;23.10;86.20
2995;DHT22;35277;49.890;8.222;2022-10-16T12:26:48;23.10;86.10
2995;DHT22;35277;49.890;8.222;2022-10-16T12:29:32;23.10;86.00
2995;DHT22;35277;49.890;8.222;2022-10-16T12:32:00;23.20;86.00
2995;DHT22;35277;49.890;8.222;2022-10-16T12:34:37;23.20;85.90
2995;DHT22;35277;49.890;8.222;2022-10-16T12:37:13;23.20;85.80
2995;DHT22;35277;49.890;8.222;2022-10-16T12:39:42;23.20;85.80
2995;DHT22;35277;49.890;8.222;2022-10-16T12:42:31;23.20;85.70
2995;DHT22;35277;49.890;8.222;2022-10-16T12:45:00;23.20;85.60
2995;DHT22;35277;49.890;8.222;2022-10-16T12:47:37;23.20;85.50
2995;DHT22;35277;49.890;8.222;2022-10-16T12:50:24;23.20;85.50
2995;DHT22;35277;49.890;8.222;2022-10-16T12:52:54;23.20;85.40
2995;DHT22;35277;49.890;8.222;2022-10-16T12:55:22;23.20;85.40
2995;DHT22;35277;49.890;8.222;2022-10-16T12:58:11;23.20;85.40
2995;DHT22;35277;49.890;8.222;2022-10-16T13:00:45;23.20;85.40
2995;DHT22;35277;49.890;8.222;2022-10-16T13:03:52;23.20;85.40
2995;DHT22;35277;49.890;8.222;2022-10-16T13:06:33;23.20;85.40
2995;DHT22;35277;49.890;8.222;2022-10-16T13:09:12;23.20;85.30
2995;DHT22;35277;49.890;8.222;2022-10-16T13:11:54;23.20;85.20
2995;DHT22;35277;49.890;8.222;2022-10-16T13:14:38;23.20;85.20
2995;DHT22;35277;49.890;8.222;2022-10-16T13:17:20;23.20;85.10
2995;DHT22;35277;49.890;8.222;2022-10-16T13:20:00;23.20;85.10
2995;DHT22;35277;49.890;8.222;2022-10-16T13:22:35;23.20;85.00
2995;DHT22;35277;49.890;8.222;2022-10-16T13:25:19;23.20;84.90
2995;DHT22;35277;49.890;8.222;2022-10-16T13:27:54;23.20;84.90
2995;DHT22;35277;49.890;8.222;2022-10-16T13:30:24;23.20;84.80
2995;DHT22;35277;49.890;8.222;2022-10-16T13:33:00;23.20;84.80
2995;DHT22;35277;49.890;8.222;2022-10-16T13:35:29;23.20;84.80
2995;DHT22;35277;49.890;8.222;2022-10-16T13:38:13;23.20;84.70
2995;DHT22;35277;49.890;8.222;2022-10-16T13:40:54;23.20;84.70
2995;DHT22;35277;49.890;8.222;2022-10-16T13:43:27;23.20;84.60
2995;DHT22;35277;49.890;8.222;2022-10-16T13:45:58;23.20;84.50
2995;DHT22;35277;49.890;8.222;2022-10-16T13:48:26;23.20;84.60
2995;DHT22;35277;49.890;8.222;2022-10-16T13:51:05;23.20;84.50
2995;DHT22;35277;49.890;8.222;2022-10-16T13:53:34;23.20;84.50
2995;DHT22;35277;49.890;8.222;2022-10-16T13:56:06;23.20;84.50
2995;DHT22;35277;49.890;8.222;2022-10-16T13:58:34;23.20;84.40
2995;DHT22;35277;49.890;8.222;2022-10-16T14:01:04;23.20;84.40
2995;DHT22;35277;49.890;8.222;2022-10-16T14:03:34;23.20;84.30
2995;DHT22;35277;49.890;8.222;2022-10-16T14:06:04;23.20;84.30
2995;DHT22;35277;49.890;8.222;2022-10-16T14:08:35;23.10;84.20
2995;DHT22;35277;49.890;8.222;2022-10-16T14:11:04;23.20;84.20
2995;DHT22;35277;49.890;8.222;2022-10-16T14:13:36;23.20;84.20
2995;DHT22;35277;49.890;8.222;2022-10-16T14:16:07;23.20;84.20
2995;DHT22;35277;49.890;8.222;2022-10-16T14:18:38;23.10;84.00
2995;DHT22;35277;49.890;8.222;2022-10-16T14:21:07;23.10;84.00
2995;DHT22;35277;49.890;8.222;2022-10-16T14:23:39;23.20;84.00
2995;DHT22;35277;49.890;8.222;2022-10-16T14:26:15;23.10;83.90
2995;DHT22;35277;49.890;8.222;2022-10-16T14:28:43;23.10;83.90
2995;DHT22;35277;49.890;8.222;2022-10-16T14:31:30;23.10;83.80
2995;DHT22;35277;49.890;8.222;2022-10-16T14:33:59;23.10;83.80
2995;DHT22;35277;49.890;8.222;2022-10-16T14:36:28;23.10;83.80
2995;DHT22;35277;49.890;8.222;2022-10-16T14:38:59;23.10;83.80
2995;DHT22;35277;49.890;8.222;2022-10-16T14:41:31;23.10;83.90
2995;DHT22;35277;49.890;8.222;2022-10-16T14:44:02;23.10;84.00
2995;DHT22;35277;49.890;8.222;2022-10-16T14:46:34;23.10;84.00
2995;DHT22;35277;49.890;8.222;2022-10-16T14:49:12;23.10;84.00
2995;DHT22;35277;49.890;8.222;2022-10-16T14:51:42;23.20;84.10
2995;DHT22;35277;49.890;8.222;2022-10-16T14:54:12;23.10;84.00
2995;DHT22;35277;49.890;8.222;2022-10-16T14:56:48;23.10;84.00
2995;DHT22;35277;49.890;8.222;2022-10-16T14:59:19;23.10;84.00
2995;DHT22;35277;49.890;8.222;2022-10-16T15:01:47;23.10;84.00
2995;DHT22;35277;49.890;8.222;2022-10-16T15:04:15;23.20;84.10
2995;DHT22;35277;49.890;8.222;2022-10-16T15:06:44;23.20;84.10
2995;DHT22;35277;49.890;8.222;2022-10-16T15:09:12;23.10;84.00
2995;DHT22;35277;49.890;8.222;2022-10-16T15:11:40;23.20;84.10
2995;DHT22;35277;49.890;8.222;2022-10-16T15:14:11;23.10;84.00
2995;DHT22;35277;49.890;8.222;2022-10-16T15:16:44;23.20;84.20
2995;DHT22;35277;49.890;8.222;2022-10-16T15:19:12;23.20;84.30
2995;DHT22;35277;49.890;8.222;2022-10-16T15:21:40;23.20;84.30
2995;DHT22;35277;49.890;8.222;2022-10-16T15:24:11;23.20;84.40
2995;DHT22;35277;49.890;8.222;2022-10-16T15:26:44;23.20;84.40
2995;DHT22;35277;49.890;8.222;2022-10-16T15:29:15;23.20;84.50
2995;DHT22;35277;49.890;8.222;2022-10-16T15:31:42;23.20;84.50
2995;DHT22;35277;49.890;8.222;2022-10-16T15:34:11;23.20;84.50
2995;DHT22;35277;49.890;8.222;2022-10-16T15:36:40;23.20;84.60
2995;DHT22;35277;49.890;8.222;2022-10-16T15:39:12;23.20;84.60
2995;DHT22;35277;49.890;8.222;2022-10-16T15:41:40;23.20;84.50
2995;DHT22;35277;49.890;8.222;2022-10-16T15:44:09;23.20;84.50
2995;DHT22;35277;49.890;8.222;2022-10-16T15:46:38;23.20;84.50
2995;DHT22;35277;49.890;8.222;2022-10-16T15:49:06;23.20;84.40
2995;DHT22;35277;49.890;8.222;2022-10-16T15:51:34;23.20;84.40
2995;DHT22;35277;49.890;8.222;2022-10-16T15:54:05;23.20;84.40
2995;DHT22;35277;49.890;8.222;2022-10-16T15:56:32;23.20;84.40
2995;DHT22;35277;49.890;8.222;2022-10-16T15:59:03;23.20;84.40
2995;DHT22;35277;49.890;8.222;2022-10-16T16:01:32;23.20;84.30
2995;DHT22;35277;49.890;8.222;2022-10-16T16:04:02;23.20;84.30
2995;DHT22;35277;49.890;8.222;2022-10-16T16:06:41;23.20;84.30
2995;DHT22;35277;49.890;8.222;2022-10-16T16:09:11;23.20;84.30
2995;DHT22;35277;49.890;8.222;2022-10-16T16:11:39;23.20;84.30
2995;DHT22;35277;49.890;8.222;2022-10-16T16:14:07;23.20;84.30
2995;DHT22;35277;49.890;8.222;2022-10-16T16:16:34;23.20;84.30